Carpenter, Mississippi
Current Conditions -  °F | °C
As of 12:15 PM on Monday 22 Dec 2014 (Local Time) from KVKS Reporting Station
Overcast Overcast  
Wind Chill: 63°   Ceiling: 800
Heat Index: 63°   Visibility: 9mi
Dew Point: 59°   Wind: 5mph
Humidity: 88%   Direction: 140°SE
Pressure: 29.72"   Gusts: NA
Location:  31.955°N, 90.8237°W
Report Text: KVKS 221815Z AUTO 14004KT 9SM OVC008 17/15 A2972 RMK A01
Loading
Personal Weather Stations






























Interactive Weather Map New forecast layout! Learn more

10-Day Weather Forecast

Advertisements
Track Severe Weather on mobile